Time;durP1;ratioP1;P1;durP2;ratioP2;P2;SDS_P1;SDS_P2;PMS_P1;PMS_P2;Temp;Humidity;BMP_temperature;BMP_pressure;BME280_temperature;BME280_humidity;BME280_pressure;Samples;Min_cycle;Max_cycle;Signal;HPM_P1;HPM_P2
2022/02/05 00:00:31;;;;;;;1.53;1.20;;;;;;;1.80;100.00;96813.00;4985917;28;20231;-50
2022/02/05 00:03:15;;;;;;;0.93;0.93;;;;;;;1.78;100.00;96804.47;4974399;28;20283;-48
2022/02/05 00:05:49;;;;;;;1.00;1.00;;;;;;;1.80;100.00;96805.97;4988633;28;20672;-47
2022/02/05 00:08:35;;;;;;;0.80;0.80;;;;;;;1.82;100.00;96800.63;4942991;28;20468;-49
2022/02/05 00:41:47;;;;;;;1.53;1.53;;;;;;;1.78;100.00;96912.38;4969880;28;20734;-51
2022/02/05 00:44:15;;;;;;;1.43;1.43;;;;;;;1.75;100.00;96898.78;4987943;28;20315;-48
2022/02/05 00:46:45;;;;;;;1.50;1.50;;;;;;;1.74;100.00;96905.78;4989982;28;20709;-50
2022/02/05 00:49:14;;;;;;;2.10;1.87;;;;;;;1.66;100.00;96900.41;4974774;28;20208;-52
2022/02/05 00:51:48;;;;;;;1.70;1.53;;;;;;;1.80;100.00;96922.72;4988388;28;20643;-50
2022/02/05 00:54:20;;;;;;;2.23;2.03;;;;;;;1.71;100.00;96925.19;4949998;28;20236;-51
2022/02/05 00:59:30;;;;;;;1.53;1.50;;;;;;;1.70;100.00;96931.34;4982336;28;20621;-52
2022/02/05 01:01:58;;;;;;;1.80;1.70;;;;;;;1.78;100.00;96948.97;4988355;28;20575;-53
2022/02/05 01:04:26;;;;;;;2.00;1.90;;;;;;;1.69;100.00;96942.75;4988005;28;20227;-52
2022/02/05 01:06:55;;;;;;;1.40;1.40;;;;;;;1.75;100.00;96961.47;4971871;28;20212;-49
2022/02/05 01:09:25;;;;;;;2.07;1.80;;;;;;;1.69;100.00;96955.81;4944280;28;20524;-51
2022/02/05 01:11:55;;;;;;;1.73;1.63;;;;;;;1.67;100.00;96959.53;4976783;28;20229;-55
2022/02/05 01:14:28;;;;;;;1.93;1.90;;;;;;;1.51;100.00;96962.63;4986385;28;20209;-49
2022/02/05 01:17:00;;;;;;;2.00;1.90;;;;;;;1.35;100.00;96982.25;4962093;28;20212;-49
2022/02/05 01:19:56;;;;;;;1.60;1.60;;;;;;;1.36;100.00;96983.03;4986034;28;20520;-51
2022/02/05 01:22:25;;;;;;;2.00;1.90;;;;;;;1.26;100.00;96989.06;4971890;28;20205;-50
2022/02/05 01:24:54;;;;;;;1.83;1.73;;;;;;;1.22;100.00;96986.81;4946617;28;20555;-48
2022/02/05 01:27:34;;;;;;;2.17;2.07;;;;;;;1.04;100.00;96997.88;4984109;28;20292;-48
2022/02/05 01:30:13;;;;;;;1.83;1.73;;;;;;;1.13;100.00;96997.09;4985723;28;20209;-50
2022/02/05 01:32:49;;;;;;;1.70;1.70;;;;;;;0.89;100.00;96989.53;4987366;28;20329;-50
2022/02/05 01:35:24;;;;;;;2.37;2.27;;;;;;;0.97;100.00;97004.56;4980036;28;20212;-51
2022/02/05 01:49:14;;;;;;;3.20;1.97;;;;;;;0.84;100.00;97017.78;4987953;28;20208;-51
2022/02/05 01:52:01;;;;;;;1.80;1.80;;;;;;;0.88;100.00;97027.00;4969052;28;21354;-53
2022/02/05 01:54:42;;;;;;;2.50;2.30;;;;;;;0.94;100.00;97029.13;4984568;28;20205;-55
2022/02/05 01:57:15;;;;;;;2.60;2.50;;;;;;;1.06;100.00;97035.09;4946073;28;20213;-50
2022/02/05 02:00:04;;;;;;;2.23;2.13;;;;;;;1.12;100.00;97031.97;4986810;28;20206;-52
2022/02/05 02:05:26;;;;;;;2.30;2.20;;;;;;;1.11;100.00;97032.09;4983536;28;20641;-52
2022/02/05 02:11:06;;;;;;;2.17;2.07;;;;;;;1.00;100.00;97036.44;4987263;28;20223;-49
2022/02/05 02:16:32;;;;;;;2.00;1.90;;;;;;;0.82;100.00;97058.84;4957997;28;20273;-53
2022/02/05 02:19:09;;;;;;;2.07;1.97;;;;;;;0.71;100.00;97062.31;4986797;28;20233;-52
2022/02/05 02:21:45;;;;;;;2.40;2.30;;;;;;;0.59;100.00;97073.75;4991879;28;20566;-49
2022/02/05 02:24:19;;;;;;;1.83;1.80;;;;;;;0.54;100.00;97072.31;4966859;28;20205;-53
2022/02/05 02:27:02;;;;;;;2.00;2.00;;;;;;;0.48;100.00;97080.63;4955107;28;20717;-52
2022/02/05 02:29:43;;;;;;;2.03;1.93;;;;;;;0.49;100.00;97090.09;4987078;28;20213;-52
2022/02/05 02:32:12;;;;;;;1.70;1.70;;;;;;;0.46;100.00;97087.75;4987856;28;20323;-49
2022/02/05 02:34:45;;;;;;;1.90;1.90;;;;;;;0.45;100.00;97087.88;4986272;28;20507;-53
2022/02/05 02:37:19;;;;;;;1.57;1.57;;;;;;;0.29;100.00;97096.91;4988919;28;20231;-51
2022/02/05 02:40:02;;;;;;;3.67;1.63;;;;;;;0.25;100.00;97085.91;4970158;28;20208;-54
2022/02/05 02:42:30;;;;;;;1.73;1.63;;;;;;;0.09;100.00;97099.31;4989171;28;20682;-53
2022/02/05 02:44:58;;;;;;;1.83;1.73;;;;;;;0.04;100.00;97095.41;4953138;28;20383;-51
2022/02/05 02:47:27;;;;;;;1.93;1.83;;;;;;;0.01;100.00;97093.88;4985326;28;20216;-51
2022/02/05 02:50:00;;;;;;;1.77;1.67;;;;;;;0.01;100.00;97095.66;4986202;28;20201;-53
2022/02/05 02:58:17;;;;;;;2.37;2.27;;;;;;;0.03;100.00;97093.75;4924729;29;20225;-51
2022/02/05 03:00:48;;;;;;;2.37;2.20;;;;;;;-0.11;100.00;97077.44;4875040;28;20530;-48
2022/02/05 03:03:16;;;;;;;1.93;1.83;;;;;;;-0.04;100.00;97094.22;4923042;29;20222;-53
2022/02/05 03:05:44;;;;;;;2.10;2.00;;;;;;;-0.26;100.00;97092.47;4928228;29;20601;-49
2022/02/05 03:08:14;;;;;;;2.60;2.40;;;;;;;-0.27;100.00;97103.81;4923529;29;20780;-50
2022/02/05 03:10:42;;;;;;;2.03;1.97;;;;;;;-0.27;100.00;97108.19;4902949;28;20235;-46
2022/02/05 03:13:11;;;;;;;2.00;1.90;;;;;;;-0.25;100.00;97116.72;4923613;29;20212;-50
2022/02/05 03:15:44;;;;;;;1.90;1.70;;;;;;;-0.26;100.00;97117.66;4878223;29;20223;-48
2022/02/05 03:18:16;;;;;;;2.50;2.40;;;;;;;-0.32;100.00;97132.81;4922677;29;20209;-48
2022/02/05 03:20:44;;;;;;;3.40;2.30;;;;;;;-0.36;100.00;97134.00;4918895;29;20590;-46
2022/02/05 03:23:14;;;;;;;2.03;1.93;;;;;;;-0.34;100.00;97141.69;4927322;29;20246;-53
2022/02/05 03:25:42;;;;;;;2.53;2.23;;;;;;;-0.41;100.00;97130.91;4917197;29;20238;-50
2022/02/05 03:28:10;;;;;;;2.33;2.13;;;;;;;-0.41;100.00;97164.75;4911068;28;20219;-51
2022/02/05 03:30:39;;;;;;;1.93;1.83;;;;;;;-0.41;100.00;97162.16;4873734;29;20235;-50
2022/02/05 03:33:07;;;;;;;2.77;2.53;;;;;;;-0.37;100.00;97184.41;4966711;28;20275;-49
2022/02/05 03:35:36;;;;;;;3.90;2.27;;;;;;;-0.32;100.00;97173.66;4987254;28;20220;-48
2022/02/05 03:38:04;;;;;;;2.23;2.13;;;;;;;-0.39;100.00;97186.28;4954120;28;20870;-49
2022/02/05 03:40:34;;;;;;;2.37;2.23;;;;;;;-0.43;100.00;97184.88;4990750;28;20648;-49
2022/02/05 03:43:02;;;;;;;3.20;2.90;;;;;;;-0.45;100.00;97195.38;4965087;28;20517;-47
2022/02/05 03:45:33;;;;;;;4.03;2.33;;;;;;;-0.44;100.00;97194.44;4946265;28;20224;-49
2022/02/05 03:48:01;;;;;;;7.03;3.50;;;;;;;-0.50;100.00;97197.50;4960166;28;20588;-53
2022/02/05 03:50:31;;;;;;;3.00;2.70;;;;;;;-0.57;100.00;97214.53;4989308;28;20241;-50
2022/02/05 03:52:59;;;;;;;2.80;2.67;;;;;;;-0.46;100.00;97211.13;4986963;28;20197;-56
2022/02/05 03:55:27;;;;;;;3.57;2.43;;;;;;;-0.47;100.00;97217.28;4988333;28;20584;-53
2022/02/05 03:57:57;;;;;;;2.80;2.60;;;;;;;-0.53;100.00;97221.16;4950132;28;20501;-50
2022/02/05 04:00:25;;;;;;;2.37;2.20;;;;;;;-0.64;100.00;97227.16;4985989;28;20239;-53
2022/02/05 04:02:54;;;;;;;3.33;2.67;;;;;;;-0.60;100.00;97236.38;4939489;28;20574;-49
2022/02/05 04:05:22;;;;;;;2.57;2.37;;;;;;;-0.73;100.00;97235.63;4988468;28;20216;-52
2022/02/05 04:07:52;;;;;;;2.90;2.80;;;;;;;-0.65;100.00;97241.09;4958739;28;20262;-54
2022/02/05 04:10:27;;;;;;;2.47;2.37;;;;;;;-0.68;100.00;97237.91;4981433;28;20499;-52
2022/02/05 04:16:09;;;;;;;2.47;2.27;;;;;;;-0.73;100.00;97254.69;4915068;28;20237;-51
2022/02/05 04:18:37;;;;;;;2.30;2.10;;;;;;;-0.89;100.00;97265.38;4977721;28;20403;-57
2022/02/05 04:21:06;;;;;;;2.60;2.13;;;;;;;-0.96;100.00;97269.31;4984973;28;20282;-51
2022/02/05 04:23:34;;;;;;;2.53;2.43;;;;;;;-0.98;100.00;97258.19;4984536;28;20416;-47
2022/02/05 04:26:02;;;;;;;5.80;2.67;;;;;;;-0.85;100.00;97278.97;4987258;28;20240;-52
2022/02/05 04:28:32;;;;;;;1.93;1.83;;;;;;;-0.80;100.00;97269.06;4964434;28;20223;-51
2022/02/05 04:31:00;;;;;;;1.93;1.83;;;;;;;-0.85;100.00;97286.78;4969732;28;21233;-50
2022/02/05 04:33:29;;;;;;;2.20;2.07;;;;;;;-0.83;100.00;97284.91;4933522;28;20571;-46
2022/02/05 04:35:57;;;;;;;2.00;1.90;;;;;;;-0.82;100.00;97285.75;4985854;28;20958;-47
2022/02/05 04:38:26;;;;;;;2.10;2.00;;;;;;;-0.57;100.00;97287.41;4986103;28;20518;-49
2022/02/05 04:40:59;;;;;;;3.10;2.63;;;;;;;-0.64;100.00;97289.59;4983468;28;20642;-47
2022/02/05 04:43:50;;;;;;;2.27;2.13;;;;;;;-0.62;100.00;97285.13;4964763;28;20213;-50
2022/02/05 04:57:57;;;;;;;4.07;2.43;;;;;;;-1.35;100.00;97268.59;5003410;28;20201;-51
2022/02/05 05:00:44;;;;;;;5.55;3.00;;;;;;;-1.15;100.00;97306.19;4981386;28;20899;-50
2022/02/05 05:03:32;;;;;;;3.13;2.57;;;;;;;-1.34;100.00;97302.31;5004458;28;20243;-54
2022/02/05 05:06:25;;;;;;;3.20;2.40;;;;;;;-1.54;100.00;97308.88;4978902;28;20421;-52
2022/02/05 05:09:08;;;;;;;2.43;2.33;;;;;;;-1.48;100.00;97313.63;4999674;28;20798;-52
2022/02/05 05:11:44;;;;;;;3.00;2.67;;;;;;;-1.33;100.00;97323.91;5000369;28;20228;-48
2022/02/05 05:19:47;;;;;;;2.83;2.63;;;;;;;-1.18;100.00;97322.88;4952327;28;20208;-48
2022/02/05 05:22:16;;;;;;;3.30;3.00;;;;;;;-0.76;100.00;97324.31;5004168;28;21012;-48
2022/02/05 05:24:46;;;;;;;2.63;2.37;;;;;;;-0.77;100.00;97333.06;4999986;28;20676;-46
2022/02/05 05:27:14;;;;;;;2.37;2.17;;;;;;;-0.58;100.00;97324.78;5003444;28;20891;-49
2022/02/05 05:29:43;;;;;;;2.77;2.57;;;;;;;-0.69;100.00;97335.13;4980040;28;20209;-49
2022/02/05 05:32:11;;;;;;;4.27;2.87;;;;;;;-0.62;100.00;97334.56;4984007;28;20236;-48
2022/02/05 05:34:39;;;;;;;3.30;3.10;;;;;;;-0.65;100.00;97336.56;4989028;28;20281;-47
2022/02/05 05:37:07;;;;;;;2.88;2.47;;;;;;;-0.38;100.00;97351.13;5045125;28;20445;-47
2022/02/05 05:39:38;;;;;;;2.50;2.33;;;;;;;-0.40;100.00;97356.47;5038226;28;20553;-46
2022/02/05 05:42:13;;;;;;;3.77;2.33;;;;;;;-0.48;100.00;97356.19;5037732;28;20289;-49
2022/02/05 05:45:15;;;;;;;2.03;1.93;;;;;;;-0.54;100.00;97354.03;5045783;28;20575;-47
2022/02/05 05:47:52;;;;;;;1.83;1.73;;;;;;;-0.51;100.00;97356.41;5023594;28;20601;-49
2022/02/05 05:53:16;;;;;;;1.67;1.57;;;;;;;-0.73;100.00;97363.97;4997053;28;20216;-46
2022/02/05 05:55:46;;;;;;;2.30;2.17;;;;;;;-0.80;100.00;97359.31;4995079;28;20486;-49
2022/02/05 05:58:16;;;;;;;1.90;1.80;;;;;;;-0.82;100.00;97364.59;4999501;28;20214;-49
2022/02/05 06:00:45;;;;;;;2.30;2.10;;;;;;;-0.73;100.00;97365.72;5004610;28;20243;-49
2022/02/05 06:03:14;;;;;;;2.73;2.10;;;;;;;-0.74;100.00;97370.13;4949458;28;20441;-47
2022/02/05 06:05:42;;;;;;;2.10;1.93;;;;;;;-0.52;100.00;97371.19;4990025;28;20263;-48
2022/02/05 06:08:10;;;;;;;1.90;1.80;;;;;;;-0.42;100.00;97373.97;4933342;28;20212;-50
2022/02/05 06:10:39;;;;;;;2.47;1.83;;;;;;;-0.23;100.00;97386.50;4988887;28;20259;-53
2022/02/05 06:13:07;;;;;;;2.57;2.13;;;;;;;-0.11;100.00;97386.53;4983026;28;20213;-49
2022/02/05 06:15:38;;;;;;;2.13;2.03;;;;;;;-0.29;100.00;97392.16;4986991;28;20217;-49
2022/02/05 06:18:07;;;;;;;2.30;2.03;;;;;;;-0.10;100.00;97393.41;4958866;28;20299;-50
2022/02/05 06:20:38;;;;;;;3.53;2.30;;;;;;;-0.01;100.00;97398.78;4981998;28;20323;-49
2022/02/05 06:23:07;;;;;;;3.17;2.03;;;;;;;0.08;100.00;97405.09;4944351;28;20213;-47
2022/02/05 06:25:38;;;;;;;2.30;2.10;;;;;;;-0.07;100.00;97406.19;4987756;28;20201;-48
2022/02/05 06:28:06;;;;;;;3.80;2.27;;;;;;;0.01;100.00;97411.72;4986858;28;20213;-50
2022/02/05 06:30:34;;;;;;;2.00;1.90;;;;;;;0.02;100.00;97415.13;5031298;28;20231;-49
2022/02/05 06:33:04;;;;;;;2.50;2.40;;;;;;;-0.03;100.00;97413.69;5024014;28;20212;-47
2022/02/05 06:35:32;;;;;;;2.07;1.97;;;;;;;0.16;100.00;97417.56;5023172;28;20203;-51
2022/02/05 06:38:01;;;;;;;2.83;2.43;;;;;;;-0.09;100.00;97421.13;4989048;28;20969;-49
2022/02/05 06:40:29;;;;;;;5.57;2.67;;;;;;;-0.12;100.00;97409.16;5031074;28;20326;-47
2022/02/05 06:42:58;;;;;;;1.77;1.77;;;;;;;-0.16;100.00;97418.97;5028516;28;20277;-48
2022/02/05 06:45:26;;;;;;;2.03;1.67;;;;;;;0.05;100.00;97425.34;5029370;28;21274;-49
2022/02/05 06:47:54;;;;;;;2.20;2.10;;;;;;;0.11;100.00;97430.09;5030031;28;20269;-48
2022/02/05 06:50:26;;;;;;;2.23;2.13;;;;;;;0.04;100.00;97432.31;5013786;28;20259;-47
2022/02/05 06:52:54;;;;;;;2.33;2.00;;;;;;;-0.05;100.00;97433.81;4989245;28;20234;-50
2022/02/05 06:55:22;;;;;;;2.00;1.73;;;;;;;-0.17;100.00;97439.94;5025569;28;20494;-49
2022/02/05 06:57:51;;;;;;;2.70;2.50;;;;;;;-0.40;100.00;97442.38;5031408;28;20675;-48
2022/02/05 07:00:19;;;;;;;2.87;2.30;;;;;;;-0.48;100.00;97455.13;5025359;28;20444;-50
2022/02/05 07:02:47;;;;;;;1.90;1.80;;;;;;;-0.67;100.00;97450.38;5028234;28;20223;-48
2022/02/05 07:05:16;;;;;;;2.23;2.00;;;;;;;-0.67;100.00;97458.97;5011196;28;20910;-48
2022/02/05 07:07:45;;;;;;;1.83;1.73;;;;;;;-0.67;100.00;97461.59;4987645;28;20211;-51
2022/02/05 07:10:13;;;;;;;3.63;3.33;;;;;;;-0.77;100.00;97477.00;5029423;28;20363;-49
2022/02/05 07:12:59;;;;;;;3.97;3.67;;;;;;;-0.93;100.00;97482.44;5026694;28;20227;-49
2022/02/05 07:15:31;;;;;;;2.63;2.53;;;;;;;-1.22;100.00;97474.84;5027567;28;20207;-50
2022/02/05 07:18:11;;;;;;;2.57;2.43;;;;;;;-1.37;100.00;97484.47;5004538;28;20460;-51
2022/02/05 07:20:43;;;;;;;2.80;2.60;;;;;;;-1.34;100.00;97488.63;5030320;28;20739;-47
2022/02/05 07:31:26;;;;;;;2.70;2.50;;;;;;;-0.50;100.00;97506.47;5027417;28;20239;-51
2022/02/05 07:33:55;;;;;;;12.70;8.93;;;;;;;-0.27;100.00;97490.97;5023071;28;20208;-45
2022/02/05 07:36:24;;;;;;;2.87;2.70;;;;;;;0.09;100.00;97508.38;5031937;28;20208;-45
2022/02/05 07:38:54;;;;;;;2.80;2.70;;;;;;;0.26;100.00;97490.69;4979410;28;21680;-49
2022/02/05 07:41:23;;;;;;;3.10;2.80;;;;;;;0.35;100.00;97505.66;5028552;28;20230;-49
2022/02/05 07:43:51;;;;;;;2.60;2.40;;;;;;;0.52;100.00;97506.22;5030002;28;20199;-46
2022/02/05 07:46:19;;;;;;;2.37;2.27;;;;;;;0.58;100.00;97508.38;5030569;28;20228;-47
2022/02/05 07:48:48;;;;;;;2.53;2.37;;;;;;;0.65;100.00;97512.19;5027208;28;20711;-49
2022/02/05 07:51:16;;;;;;;2.43;2.23;;;;;;;0.65;100.00;97512.19;5027747;28;20239;-49
2022/02/05 07:53:45;;;;;;;3.27;2.23;;;;;;;0.64;100.00;97525.34;5001089;28;20207;-46
2022/02/05 07:56:16;;;;;;;2.57;2.30;;;;;;;0.61;100.00;97521.19;5012570;28;20922;-45
2022/02/05 07:58:44;;;;;;;2.90;1.87;;;;;;;0.67;100.00;97520.72;5029262;28;20212;-47
2022/02/05 08:01:12;;;;;;;2.60;2.40;;;;;;;0.65;100.00;97537.44;5028821;28;20235;-49
2022/02/05 08:03:41;;;;;;;2.40;2.20;;;;;;;0.43;100.00;97542.44;5029195;28;20311;-49
2022/02/05 08:06:15;;;;;;;2.30;2.20;;;;;;;0.42;100.00;97547.75;5025553;28;20367;-48
2022/02/05 08:08:46;;;;;;;2.73;2.20;;;;;;;0.43;100.00;97545.06;5027560;28;20204;-48
2022/02/05 08:11:20;;;;;;;3.77;2.00;;;;;;;0.42;100.00;97558.19;4988427;28;20231;-51
2022/02/05 08:13:51;;;;;;;3.00;2.70;;;;;;;0.61;100.00;97555.06;5004802;28;20647;-51
2022/02/05 08:16:45;;;;;;;3.13;2.87;;;;;;;0.51;100.00;97559.31;5016599;28;21137;-50
2022/02/05 08:19:13;;;;;;;3.57;2.70;;;;;;;0.55;100.00;97563.34;5028334;28;20800;-50
2022/02/05 08:21:41;;;;;;;3.77;3.00;;;;;;;0.57;100.00;97554.50;5011684;28;20223;-48
2022/02/05 08:24:10;;;;;;;3.23;3.03;;;;;;;0.79;100.00;97572.94;5030172;28;20203;-51
2022/02/05 08:26:40;;;;;;;2.80;2.60;;;;;;;0.75;100.00;97571.47;4984129;28;20219;-45
2022/02/05 08:29:10;;;;;;;3.40;2.90;;;;;;;0.77;100.00;97575.66;5029020;28;20580;-48
2022/02/05 08:31:38;;;;;;;3.03;2.57;;;;;;;0.84;100.00;97582.09;5017253;28;20232;-48
2022/02/05 08:34:07;;;;;;;5.60;2.87;;;;;;;1.00;100.00;97578.34;5026659;28;20207;-50
2022/02/05 08:36:41;;;;;;;5.53;3.17;;;;;;;1.10;100.00;97586.31;5011882;28;20230;-49
2022/02/05 08:39:10;;;;;;;3.00;2.80;;;;;;;1.27;100.00;97585.06;4979698;28;20268;-49
2022/02/05 08:41:40;;;;;;;3.27;2.73;;;;;;;1.31;100.00;97583.88;4936740;28;20717;-46
2022/02/05 08:44:13;;;;;;;4.70;2.60;;;;;;;1.33;100.00;97587.22;4986936;28;20694;-48
2022/02/05 08:46:42;;;;;;;3.10;2.67;;;;;;;1.46;100.00;97584.50;4973613;28;20271;-53
2022/02/05 08:49:10;;;;;;;3.23;3.03;;;;;;;1.48;100.00;97584.38;4979132;28;20206;-50
2022/02/05 08:51:38;;;;;;;2.90;2.70;;;;;;;1.62;100.00;97578.13;4964059;28;20245;-48
2022/02/05 08:54:07;;;;;;;3.20;3.00;;;;;;;1.77;100.00;97576.09;4983522;28;20241;-48
2022/02/05 08:56:35;;;;;;;3.77;2.60;;;;;;;1.72;100.00;97581.69;4958828;28;20218;-48
2022/02/05 08:59:05;;;;;;;2.77;2.57;;;;;;;1.94;100.00;97586.06;4976537;28;20239;-49
2022/02/05 09:01:45;;;;;;;3.47;3.17;;;;;;;1.95;100.00;97595.56;4986509;28;20705;-47
2022/02/05 09:04:22;;;;;;;3.17;2.67;;;;;;;2.13;100.00;97582.84;4969735;28;20220;-53
2022/02/05 09:06:50;;;;;;;3.37;3.10;;;;;;;2.05;100.00;97595.69;4961259;28;20231;-48
2022/02/05 09:09:31;;;;;;;3.30;3.10;;;;;;;1.97;100.00;97593.66;4988569;28;20748;-48
2022/02/05 09:12:15;;;;;;;3.20;3.00;;;;;;;2.00;100.00;97595.22;4940416;28;21403;-48
2022/02/05 09:14:49;;;;;;;3.13;2.83;;;;;;;1.88;100.00;97594.38;4979341;28;21643;-53
2022/02/05 09:17:17;;;;;;;3.40;3.10;;;;;;;1.76;100.00;97596.16;4989182;28;20209;-48
2022/02/05 09:19:46;;;;;;;3.57;3.27;;;;;;;1.67;100.00;97597.69;4969169;28;20342;-49
2022/02/05 09:22:14;;;;;;;3.87;3.40;;;;;;;1.61;100.00;97597.34;4974801;28;20261;-50
2022/02/05 09:24:42;;;;;;;3.77;3.47;;;;;;;1.73;100.00;97591.19;4982283;28;20292;-52
2022/02/05 09:27:12;;;;;;;3.63;3.13;;;;;;;1.89;100.00;97596.06;4984955;28;20685;-47
2022/02/05 09:29:46;;;;;;;3.40;3.10;;;;;;;2.34;100.00;97595.19;4945423;28;20228;-51
2022/02/05 09:32:15;;;;;;;3.10;2.90;;;;;;;2.56;100.00;97586.44;4985884;28;20221;-47
2022/02/05 09:34:43;;;;;;;2.63;2.43;;;;;;;2.84;100.00;97586.00;4969037;28;20210;-51
2022/02/05 09:37:12;;;;;;;3.80;2.57;;;;;;;2.90;100.00;97598.59;4969984;28;20220;-48
2022/02/05 09:39:40;;;;;;;3.23;2.93;;;;;;;2.59;100.00;97607.13;4982476;28;20263;-47
2022/02/05 09:42:09;;;;;;;4.73;2.97;;;;;;;2.45;100.00;97595.16;4991884;28;20227;-48
2022/02/05 09:44:37;;;;;;;2.60;2.40;;;;;;;2.38;100.00;97591.38;4951700;28;20245;-52
2022/02/05 09:47:06;;;;;;;3.03;2.63;;;;;;;2.52;100.00;97590.28;4983303;28;20209;-48
2022/02/05 09:49:36;;;;;;;2.63;2.43;;;;;;;2.62;100.00;97589.53;4987968;28;21674;-50
2022/02/05 09:52:11;;;;;;;6.03;3.40;;;;;;;2.66;100.00;97583.94;4956160;28;20602;-50
2022/02/05 09:54:41;;;;;;;3.73;2.97;;;;;;;3.17;100.00;97582.38;4987331;28;20200;-48
2022/02/05 09:57:10;;;;;;;6.27;3.00;;;;;;;3.38;100.00;97588.56;4985045;28;20308;-49
2022/02/05 09:59:43;;;;;;;2.27;2.17;;;;;;;3.41;100.00;97589.16;4948395;28;20707;-48
2022/02/05 10:02:18;;;;;;;3.30;3.00;;;;;;;3.25;100.00;97592.22;4989381;28;20352;-53
2022/02/05 10:05:01;;;;;;;3.57;2.70;;;;;;;3.50;100.00;97581.47;4985169;28;20485;-47
2022/02/05 10:07:55;;;;;;;2.73;2.20;;;;;;;3.30;100.00;97599.72;4970354;28;20235;-47
2022/02/05 10:10:24;;;;;;;2.20;2.00;;;;;;;3.04;100.00;97597.47;4988348;28;20221;-47
2022/02/05 10:13:07;;;;;;;2.20;2.10;;;;;;;3.10;100.00;97594.31;4986462;28;20274;-47
2022/02/05 10:15:35;;;;;;;2.50;2.30;;;;;;;3.42;100.00;97600.50;4951802;28;20208;-51
2022/02/05 10:18:04;;;;;;;2.83;2.50;;;;;;;3.52;100.00;97600.53;4989485;28;20329;-48
2022/02/05 10:20:41;;;;;;;6.63;2.47;;;;;;;3.81;100.00;97592.00;4987454;28;20224;-48
2022/02/05 10:23:10;;;;;;;5.10;2.30;;;;;;;3.93;100.00;97604.03;4975157;28;20724;-50
2022/02/05 10:25:39;;;;;;;5.40;2.20;;;;;;;3.57;100.00;97600.97;4985308;28;20373;-52
2022/02/05 10:28:09;;;;;;;2.57;2.23;;;;;;;3.50;100.00;97608.53;4989940;28;20670;-48
2022/02/05 10:30:41;;;;;;;3.47;3.10;;;;;;;3.21;100.00;97603.91;4962655;28;20225;-52
2022/02/05 10:33:14;;;;;;;3.40;1.90;;;;;;;3.12;100.00;97595.03;4987551;28;20715;-46
2022/02/05 10:35:49;;;;;;;2.30;2.20;;;;;;;2.86;100.00;97591.94;4986391;28;20201;-48
2022/02/05 10:38:36;;;;;;;2.23;2.07;;;;;;;2.82;100.00;97588.72;4989824;28;20228;-45
2022/02/05 10:43:52;;;;;;;2.63;2.13;;;;;;;3.22;100.00;97600.34;4982343;28;20197;-45
2022/02/05 10:46:21;;;;;;;2.00;1.90;;;;;;;3.46;100.00;97592.22;4989325;28;20205;-52
2022/02/05 10:48:49;;;;;;;3.90;2.13;;;;;;;3.72;100.00;97591.81;4946988;28;20316;-48
2022/02/05 10:51:19;;;;;;;2.50;2.20;;;;;;;3.54;100.00;97582.88;4978437;28;20283;-50
2022/02/05 10:53:51;;;;;;;2.30;2.20;;;;;;;3.99;100.00;97594.81;4989229;28;20756;-52
2022/02/05 10:56:27;;;;;;;2.53;2.33;;;;;;;4.09;100.00;97598.31;4973156;28;20233;-51
2022/02/05 11:07:19;;;;;;;2.73;2.17;;;;;;;3.40;100.00;97592.75;4985466;28;20332;-54
2022/02/05 11:09:50;;;;;;;2.00;1.73;;;;;;;3.69;100.00;97601.72;4976932;28;20771;-53
2022/02/05 11:12:22;;;;;;;3.23;2.47;;;;;;;3.39;100.00;97605.97;4987813;28;20454;-49
2022/02/05 11:15:08;;;;;;;2.17;1.83;;;;;;;3.74;100.00;97600.38;4989290;28;20594;-51
2022/02/05 11:20:33;;;;;;;1.63;1.53;;;;;;;3.42;100.00;97613.59;4984235;28;20228;-50
2022/02/05 11:23:06;;;;;;;1.87;1.77;;;;;;;3.53;100.00;97617.91;4984937;28;20205;-47
2022/02/05 11:25:36;;;;;;;1.80;1.70;;;;;;;3.26;100.00;97617.47;4972224;28;20848;-44
2022/02/05 11:28:05;;;;;;;2.47;2.23;;;;;;;3.43;100.00;97628.34;4985947;28;20681;-48
2022/02/05 11:30:39;;;;;;;2.90;2.00;;;;;;;3.47;100.00;97614.84;4983726;28;20225;-46
2022/02/05 11:33:21;;;;;;;4.70;2.27;;;;;;;3.62;100.00;97643.34;4947931;28;22363;-52
2022/02/05 11:36:21;;;;;;;1.53;1.43;;;;;;;3.32;100.00;97627.44;4986781;28;20212;-49
2022/02/05 11:39:00;;;;;;;2.30;2.20;;;;;;;3.21;100.00;97626.66;4986119;28;20268;-53
2022/02/05 11:41:29;;;;;;;2.93;2.40;;;;;;;3.34;100.00;97632.56;4971399;28;20628;-46
2022/02/05 11:44:29;;;;;;;2.17;2.07;;;;;;;3.36;100.00;97619.31;4983358;28;20214;-48
2022/02/05 11:47:28;;;;;;;1.70;1.60;;;;;;;3.67;100.00;97622.84;4966005;28;20787;-52
2022/02/05 11:50:22;;;;;;;2.57;2.03;;;;;;;3.60;100.00;97608.59;4950828;28;20221;-50
2022/02/05 11:53:10;;;;;;;2.57;1.30;;;;;;;3.52;100.00;97605.75;4974422;28;20214;-47
2022/02/05 11:55:43;;;;;;;1.80;1.70;;;;;;;3.55;100.00;97608.97;4957965;28;20224;-48
2022/02/05 11:58:13;;;;;;;3.00;1.97;;;;;;;3.72;100.00;97602.31;4987357;28;20566;-50
2022/02/05 12:00:48;;;;;;;3.43;2.50;;;;;;;4.21;100.00;97606.91;4980856;28;20240;-54
2022/02/05 12:03:35;;;;;;;3.73;1.93;;;;;;;4.03;100.00;97602.31;4983234;28;20643;-48
2022/02/05 12:06:12;;;;;;;2.27;2.17;;;;;;;3.69;100.00;97586.00;4953136;28;20311;-51
2022/02/05 12:08:44;;;;;;;2.07;1.87;;;;;;;3.87;100.00;97594.09;4977217;28;20208;-49
2022/02/05 12:11:34;;;;;;;1.93;1.80;;;;;;;3.96;100.00;97597.72;4974130;28;21018;-50
2022/02/05 12:14:11;;;;;;;1.97;1.70;;;;;;;3.87;100.00;97594.94;4984052;28;20244;-50
2022/02/05 12:16:39;;;;;;;2.00;1.80;;;;;;;3.95;100.00;97596.88;4981288;28;20331;-48
2022/02/05 12:19:14;;;;;;;2.27;2.07;;;;;;;3.81;100.00;97579.72;4982387;28;20224;-53
2022/02/05 12:21:59;;;;;;;2.77;1.87;;;;;;;3.58;100.00;97590.38;4937599;28;20228;-50
2022/02/05 12:24:40;;;;;;;1.60;1.50;;;;;;;4.04;100.00;97595.25;4954336;28;20718;-51
2022/02/05 12:27:36;;;;;;;3.90;2.27;;;;;;;4.17;100.00;97581.91;4985044;28;20236;-53
2022/02/05 12:30:37;;;;;;;1.93;1.70;;;;;;;4.45;100.00;97571.63;4954561;28;20209;-49
2022/02/05 12:33:08;;;;;;;1.60;1.50;;;;;;;4.49;100.00;97579.09;4978288;28;20416;-49
2022/02/05 12:35:37;;;;;;;1.97;1.70;;;;;;;4.14;100.00;97582.19;4982883;28;20620;-49
2022/02/05 12:38:07;;;;;;;1.60;1.50;;;;;;;3.98;100.00;97580.06;4903997;28;20383;-52
2022/02/05 12:40:43;;;;;;;2.63;1.87;;;;;;;3.61;100.00;97584.03;4968522;28;20241;-48
2022/02/05 12:43:14;;;;;;;1.90;1.80;;;;;;;3.47;100.00;97574.72;4946806;28;20825;-48
2022/02/05 12:45:54;;;;;;;1.93;1.80;;;;;;;3.22;100.00;97578.56;4985541;28;20349;-48
2022/02/05 12:48:26;;;;;;;1.90;1.90;;;;;;;3.23;100.00;97581.06;4987941;28;20213;-51
2022/02/05 12:50:57;;;;;;;2.43;1.80;;;;;;;3.54;100.00;97572.41;4982476;28;20656;-52
2022/02/05 12:53:31;;;;;;;1.77;1.67;;;;;;;3.79;100.00;97567.69;4944566;28;20599;-52
2022/02/05 12:56:11;;;;;;;1.73;1.63;;;;;;;3.82;100.00;97564.81;4953216;28;20599;-51
2022/02/05 12:58:54;;;;;;;1.43;1.33;;;;;;;4.32;100.00;97567.44;4957717;28;20384;-50
2022/02/05 13:01:22;;;;;;;1.43;1.33;;;;;;;5.09;100.00;97560.75;4987440;28;20294;-52
2022/02/05 13:03:50;;;;;;;1.77;1.67;;;;;;;5.47;93.56;97559.00;4984163;28;20205;-45
2022/02/05 13:06:19;;;;;;;1.43;1.33;;;;;;;5.91;89.24;97554.00;4986088;28;20268;-48
2022/02/05 13:08:49;;;;;;;1.70;1.60;;;;;;;5.99;83.63;97557.72;4943038;28;20898;-49
2022/02/05 13:11:20;;;;;;;2.10;1.50;;;;;;;7.37;72.53;97555.78;4964375;28;20724;-45
2022/02/05 13:13:54;;;;;;;1.30;1.30;;;;;;;7.69;75.22;97553.50;4959471;28;20323;-48
2022/02/05 13:16:24;;;;;;;2.73;2.57;;;;;;;7.40;80.07;97559.94;4989296;28;20208;-49
2022/02/05 13:19:03;;;;;;;1.90;1.43;;;;;;;7.49;71.25;97561.63;4970547;28;20621;-46
2022/02/05 13:27:30;;;;;;;1.43;1.30;;;;;;;7.82;64.11;97564.47;4951195;28;20224;-48
2022/02/05 13:33:35;;;;;;;1.57;1.43;;;;;;;7.70;61.94;97565.69;4939675;28;20240;-48
2022/02/05 13:35:57;;;;;;;1.40;1.37;;;;;;;7.63;65.25;97570.78;4966435;28;20754;-49
2022/02/05 13:38:27;;;;;;;4.67;2.07;;;;;;;7.89;84.87;97562.00;4964590;28;20246;-52
2022/02/05 13:41:00;;;;;;;2.57;1.33;;;;;;;7.46;64.99;97569.84;4916604;28;20505;-49
2022/02/05 13:43:40;;;;;;;3.13;1.57;;;;;;;6.76;78.52;97568.78;4955646;28;20238;-49
2022/02/05 13:46:14;;;;;;;2.97;1.40;;;;;;;6.22;91.79;97577.44;4954090;28;20217;-50
2022/02/05 13:48:43;;;;;;;1.63;1.53;;;;;;;5.45;97.50;97574.09;4953462;28;20206;-48
2022/02/05 13:51:11;;;;;;;3.20;1.57;;;;;;;5.56;96.02;97568.66;4945667;28;20241;-49